Time;durP1;ratioP1;P1;durP2;ratioP2;P2;SDS_P1;SDS_P2;PMS_P1;PMS_P2;Temp;Humidity;BMP_temperature;BMP_pressure;BME280_temperature;BME280_humidity;BME280_pressure;Samples;Min_cycle;Max_cycle;Signal;HPM_P1;HPM_P2
2023/01/14 00:01:34;;;;;;;1999.90;999.90;;;;;;;;;;4954533;29;20207;-68
2023/01/14 00:04:19;;;;;;;1999.90;999.90;;;;;;;;;;4946735;29;20315;-64
2023/01/14 00:07:04;;;;;;;1999.90;999.90;;;;;;;;;;4934992;29;20687;-65
2023/01/14 00:09:49;;;;;;;1999.90;999.90;;;;;;;;;;4934806;29;20577;-66
2023/01/14 00:12:36;;;;;;;1999.90;999.90;;;;;;;;;;4935163;29;20228;-65
2023/01/14 00:15:21;;;;;;;1999.90;999.90;;;;;;;;;;4935246;29;20227;-69
2023/01/14 00:18:06;;;;;;;1999.90;999.90;;;;;;;;;;4935465;29;20703;-69
2023/01/14 00:20:57;;;;;;;1999.90;999.90;;;;;;;;;;4935163;29;20186;-69
2023/01/14 00:23:43;;;;;;;1999.90;999.90;;;;;;;;;;4935360;29;20223;-69
2023/01/14 00:26:28;;;;;;;1999.90;999.90;;;;;;;;;;4935131;29;20327;-70
2023/01/14 00:29:16;;;;;;;1999.90;999.90;;;;;;;;;;4935105;29;20614;-69
2023/01/14 00:32:03;;;;;;;1999.90;999.90;;;;;;;;;;4934943;29;20231;-69
2023/01/14 00:34:48;;;;;;;1999.90;999.90;;;;;;;;;;4934867;29;20318;-69
2023/01/14 00:37:33;;;;;;;1999.90;999.90;;;;;;;;;;4935221;29;20200;-69
2023/01/14 00:40:18;;;;;;;1999.90;999.90;;;;;;;;;;4935156;29;20212;-69
2023/01/14 00:43:03;;;;;;;1999.90;999.90;;;;;;;;;;4935110;29;20226;-69
2023/01/14 00:45:49;;;;;;;1999.90;999.90;;;;;;;;;;4934742;29;20279;-69
2023/01/14 00:48:34;;;;;;;1999.90;999.90;;;;;;;;;;4933571;29;20924;-69
2023/01/14 00:51:20;;;;;;;1999.90;999.90;;;;;;;;;;4934975;29;20337;-69
2023/01/14 00:54:05;;;;;;;1999.90;999.90;;;;;;;;;;4938144;29;20634;-69
2023/01/14 00:56:49;;;;;;;1999.90;999.90;;;;;;;;;;4954088;29;20288;-69
2023/01/14 00:59:34;;;;;;;1999.90;999.90;;;;;;;;;;4954063;29;20245;-68
2023/01/14 01:02:21;;;;;;;1999.90;999.90;;;;;;;;;;4953934;29;20205;-69
2023/01/14 01:05:07;;;;;;;1999.90;999.90;;;;;;;;;;4952975;28;20326;-69
2023/01/14 01:07:52;;;;;;;1999.90;999.90;;;;;;;;;;4954009;29;20208;-69
2023/01/14 01:10:37;;;;;;;1999.90;999.90;;;;;;;;;;4953217;29;20353;-69
2023/01/14 01:13:23;;;;;;;1999.90;999.90;;;;;;;;;;4953657;28;20235;-69
2023/01/14 01:16:10;;;;;;;1999.90;999.90;;;;;;;;;;4952955;29;20212;-69
2023/01/14 01:18:57;;;;;;;1999.90;999.90;;;;;;;;;;4953585;29;20215;-69
2023/01/14 01:21:42;;;;;;;1999.90;999.90;;;;;;;;;;4953631;29;20279;-70
2023/01/14 01:24:27;;;;;;;1999.90;999.90;;;;;;;;;;4953210;28;20306;-69
2023/01/14 01:27:12;;;;;;;1999.90;999.90;;;;;;;;;;4953811;29;20735;-69
2023/01/14 01:29:57;;;;;;;1999.90;999.90;;;;;;;;;;4953492;29;20316;-69
2023/01/14 01:32:42;;;;;;;1999.90;999.90;;;;;;;;;;4953572;29;20730;-69
2023/01/14 01:35:28;;;;;;;1999.90;999.90;;;;;;;;;;4949424;29;20234;-69
2023/01/14 01:38:13;;;;;;;1999.90;999.90;;;;;;;;;;4953742;29;20214;-69
2023/01/14 01:40:59;;;;;;;1999.90;999.90;;;;;;;;;;4953694;29;20215;-69
2023/01/14 01:44:00;;;;;;;1999.90;999.90;;;;;;;;;;4952991;28;20230;-69
2023/01/14 01:46:45;;;;;;;1999.90;999.90;;;;;;;;;;4953691;29;20702;-68
2023/01/14 01:49:32;;;;;;;1999.90;999.90;;;;;;;;;;4952883;29;20264;-68
2023/01/14 01:52:20;;;;;;;1999.90;999.90;;;;;;;;;;4953449;29;20600;-69
2023/01/14 01:55:08;;;;;;;1999.90;999.90;;;;;;;;;;4952697;28;20243;-69
2023/01/14 01:57:56;;;;;;;1999.90;999.90;;;;;;;;;;4953587;29;20206;-69
2023/01/14 02:00:41;;;;;;;1999.90;999.90;;;;;;;;;;4955966;28;20344;-69
2023/01/14 02:03:29;;;;;;;1999.90;999.90;;;;;;;;;;4956539;28;20211;-69
2023/01/14 02:06:15;;;;;;;1999.90;999.90;;;;;;;;;;4937628;29;20332;-69
2023/01/14 02:09:01;;;;;;;1999.90;999.90;;;;;;;;;;4941634;29;21017;-69
2023/01/14 02:11:57;;;;;;;1999.90;999.90;;;;;;;;;;4956774;29;20208;-69
2023/01/14 02:14:53;;;;;;;1999.90;999.90;;;;;;;;;;4956272;28;20236;-69
2023/01/14 02:17:43;;;;;;;1999.90;999.90;;;;;;;;;;4956850;29;20287;-69
2023/01/14 02:20:32;;;;;;;1999.90;999.90;;;;;;;;;;4956342;29;20211;-69
2023/01/14 02:23:39;;;;;;;1999.90;999.90;;;;;;;;;;4956143;29;20267;-70
2023/01/14 02:26:42;;;;;;;1999.90;999.90;;;;;;;;;;4956446;29;20250;-69
2023/01/14 02:29:36;;;;;;;1999.90;999.90;;;;;;;;;;4956397;29;20250;-69
2023/01/14 02:32:26;;;;;;;1999.90;999.90;;;;;;;;;;4955932;29;20469;-69
2023/01/14 02:35:16;;;;;;;1999.90;999.90;;;;;;;;;;4955616;28;20241;-69
2023/01/14 02:38:07;;;;;;;1999.90;999.90;;;;;;;;;;4956137;29;21379;-69
2023/01/14 02:40:54;;;;;;;1999.90;999.90;;;;;;;;;;4956461;29;20709;-69
2023/01/14 02:46:50;;;;;;;1999.90;999.90;;;;;;;;;;4956007;29;20232;-69
2023/01/14 02:49:37;;;;;;;1999.90;999.90;;;;;;;;;;4955864;29;20294;-69
2023/01/14 02:52:22;;;;;;;1999.90;999.90;;;;;;;;;;4956096;29;20213;-69
2023/01/14 02:55:22;;;;;;;1999.90;999.90;;;;;;;;;;4936606;29;20736;-70
2023/01/14 02:58:18;;;;;;;1999.90;999.90;;;;;;;;;;4942686;29;20701;-69
2023/01/14 03:01:08;;;;;;;1999.90;999.90;;;;;;;;;;4956005;29;20317;-69
2023/01/14 03:03:59;;;;;;;1999.90;999.90;;;;;;;;;;4955177;28;20746;-69
2023/01/14 03:06:49;;;;;;;1999.90;999.90;;;;;;;;;;4956010;29;20257;-69
2023/01/14 03:09:38;;;;;;;1999.90;999.90;;;;;;;;;;4955561;29;20331;-69
2023/01/14 03:12:29;;;;;;;1999.90;999.90;;;;;;;;;;4954721;28;20585;-69
2023/01/14 03:15:22;;;;;;;1999.90;999.90;;;;;;;;;;4955498;28;20300;-70
2023/01/14 03:18:09;;;;;;;1999.90;999.90;;;;;;;;;;4955469;29;20341;-69
2023/01/14 03:20:59;;;;;;;1999.90;999.90;;;;;;;;;;4955488;29;20269;-69
2023/01/14 03:23:47;;;;;;;1999.90;999.90;;;;;;;;;;4955322;28;20360;-69
2023/01/14 03:26:33;;;;;;;1999.90;999.90;;;;;;;;;;4955421;29;20212;-68
2023/01/14 03:29:21;;;;;;;1999.90;999.90;;;;;;;;;;4955244;29;20236;-69
2023/01/14 03:32:07;;;;;;;1999.90;999.90;;;;;;;;;;4954870;29;20212;-69
2023/01/14 03:34:55;;;;;;;1999.90;999.90;;;;;;;;;;4954805;28;20230;-69
2023/01/14 03:37:44;;;;;;;1999.90;999.90;;;;;;;;;;4955079;29;20230;-69
2023/01/14 03:40:32;;;;;;;1999.90;999.90;;;;;;;;;;4955340;29;20213;-68
2023/01/14 03:43:18;;;;;;;1999.90;999.90;;;;;;;;;;4954399;29;20669;-69
2023/01/14 03:46:03;;;;;;;1999.90;999.90;;;;;;;;;;4954669;29;20209;-65
2023/01/14 03:48:49;;;;;;;1999.90;999.90;;;;;;;;;;4947287;29;20644;-67
2023/01/14 03:51:35;;;;;;;1999.90;999.90;;;;;;;;;;4954589;29;20421;-68
2023/01/14 03:54:23;;;;;;;1999.90;999.90;;;;;;;;;;4954336;28;21196;-69
2023/01/14 03:57:11;;;;;;;1999.90;999.90;;;;;;;;;;4954991;29;20700;-67
2023/01/14 03:59:58;;;;;;;1999.90;999.90;;;;;;;;;;4954714;29;20693;-69
2023/01/14 04:02:44;;;;;;;1999.90;999.90;;;;;;;;;;4954460;29;20208;-69
2023/01/14 04:05:29;;;;;;;1999.90;999.90;;;;;;;;;;4954210;28;20254;-69
2023/01/14 04:08:14;;;;;;;1999.90;999.90;;;;;;;;;;4954595;29;20209;-69
2023/01/14 04:11:00;;;;;;;1999.90;999.90;;;;;;;;;;4954623;29;20258;-69
2023/01/14 04:17:02;;;;;;;1999.90;999.90;;;;;;;;;;4912861;29;20460;-69
2023/01/14 04:19:47;;;;;;;1999.90;999.90;;;;;;;;;;4914298;29;20714;-69
2023/01/14 04:22:32;;;;;;;1999.90;999.90;;;;;;;;;;4946870;28;20235;-69
2023/01/14 04:25:17;;;;;;;1999.90;999.90;;;;;;;;;;4953971;28;20226;-69
2023/01/14 04:28:04;;;;;;;1999.90;999.90;;;;;;;;;;4954488;29;20211;-69
2023/01/14 04:30:49;;;;;;;1999.90;999.90;;;;;;;;;;4954349;29;20820;-69
2023/01/14 04:33:33;;;;;;;1999.90;999.90;;;;;;;;;;4953815;28;20346;-69
2023/01/14 04:36:18;;;;;;;1999.90;999.90;;;;;;;;;;4954095;29;20218;-69
2023/01/14 04:39:03;;;;;;;1999.90;999.90;;;;;;;;;;4935158;29;20218;-69
2023/01/14 04:44:52;;;;;;;1999.90;999.90;;;;;;;;;;4934712;29;20715;-69
2023/01/14 04:47:38;;;;;;;1999.90;999.90;;;;;;;;;;4945703;29;20688;-68
2023/01/14 04:50:33;;;;;;;1999.90;999.90;;;;;;;;;;4953366;29;20408;-69
2023/01/14 04:53:20;;;;;;;1999.90;999.90;;;;;;;;;;4954067;29;20221;-68
2023/01/14 04:56:05;;;;;;;1999.90;999.90;;;;;;;;;;4953419;29;20208;-69
2023/01/14 04:58:51;;;;;;;1999.90;999.90;;;;;;;;;;4952414;29;20209;-69
2023/01/14 05:01:37;;;;;;;1999.90;999.90;;;;;;;;;;4953549;29;20569;-69
2023/01/14 05:04:22;;;;;;;1999.90;999.90;;;;;;;;;;4953647;28;20230;-69
2023/01/14 05:07:07;;;;;;;1999.90;999.90;;;;;;;;;;4953435;29;20332;-69
2023/01/14 05:09:52;;;;;;;1999.90;999.90;;;;;;;;;;4953640;29;20214;-69
2023/01/14 05:12:37;;;;;;;1999.90;999.90;;;;;;;;;;4953324;29;20217;-69
2023/01/14 05:15:22;;;;;;;1999.90;999.90;;;;;;;;;;4953146;28;20233;-69
2023/01/14 05:18:09;;;;;;;1999.90;999.90;;;;;;;;;;4953739;29;20215;-69
2023/01/14 05:20:55;;;;;;;1999.90;999.90;;;;;;;;;;4953726;29;20211;-70
2023/01/14 05:23:39;;;;;;;1999.90;999.90;;;;;;;;;;4953452;28;20206;-70
2023/01/14 05:26:24;;;;;;;1999.90;999.90;;;;;;;;;;4952976;29;20218;-69
2023/01/14 05:29:09;;;;;;;1999.90;999.90;;;;;;;;;;4953508;29;20586;-69
2023/01/14 05:31:54;;;;;;;1999.90;999.90;;;;;;;;;;4952872;29;20225;-67
2023/01/14 05:34:40;;;;;;;1999.90;999.90;;;;;;;;;;4946047;28;20234;-68
2023/01/14 05:37:25;;;;;;;1999.90;999.90;;;;;;;;;;4955229;29;20883;-68
2023/01/14 05:40:11;;;;;;;1999.90;999.90;;;;;;;;;;4957417;29;20214;-70
2023/01/14 05:46:00;;;;;;;1999.90;999.90;;;;;;;;;;4957145;29;20201;-69
2023/01/14 05:48:45;;;;;;;1999.90;999.90;;;;;;;;;;4957406;29;20210;-68
2023/01/14 05:51:32;;;;;;;1999.90;999.90;;;;;;;;;;4957095;29;20225;-69
2023/01/14 05:54:16;;;;;;;1999.90;999.90;;;;;;;;;;4956708;28;20853;-69
2023/01/14 05:57:01;;;;;;;1999.90;999.90;;;;;;;;;;4957005;29;20204;-69
2023/01/14 05:59:46;;;;;;;1999.90;999.90;;;;;;;;;;4956839;29;20420;-69
2023/01/14 06:08:38;;;;;;;1999.90;999.90;;;;;;;;;;4957052;29;20290;-69
2023/01/14 06:11:23;;;;;;;1999.90;999.90;;;;;;;;;;4957187;29;20713;-69
2023/01/14 06:14:08;;;;;;;1999.90;999.90;;;;;;;;;;4956669;28;20241;-69
2023/01/14 06:16:53;;;;;;;1999.90;999.90;;;;;;;;;;4957038;29;20250;-69
2023/01/14 06:19:38;;;;;;;1999.90;999.90;;;;;;;;;;4957013;29;20212;-69
2023/01/14 06:22:23;;;;;;;1999.90;999.90;;;;;;;;;;4957439;29;20213;-69
2023/01/14 06:25:10;;;;;;;1999.90;999.90;;;;;;;;;;4956529;28;20229;-69
2023/01/14 06:27:55;;;;;;;1999.90;999.90;;;;;;;;;;4956647;29;20674;-69
2023/01/14 06:30:40;;;;;;;1999.90;999.90;;;;;;;;;;4956443;29;20207;-67
2023/01/14 06:33:24;;;;;;;1999.90;999.90;;;;;;;;;;4956618;28;20211;-70
2023/01/14 06:36:10;;;;;;;1999.90;999.90;;;;;;;;;;4956448;29;20201;-69
2023/01/14 06:38:55;;;;;;;1999.90;999.90;;;;;;;;;;4956640;29;20211;-69
2023/01/14 06:41:41;;;;;;;1999.90;999.90;;;;;;;;;;4956648;29;20213;-68
2023/01/14 06:44:27;;;;;;;1999.90;999.90;;;;;;;;;;4956279;28;20223;-69
2023/01/14 06:47:12;;;;;;;1999.90;999.90;;;;;;;;;;4955244;28;20209;-69
2023/01/14 06:49:56;;;;;;;1999.90;999.90;;;;;;;;;;4956428;29;20566;-69
2023/01/14 06:52:41;;;;;;;1999.90;999.90;;;;;;;;;;4956240;29;20201;-69
2023/01/14 06:55:26;;;;;;;1999.90;999.90;;;;;;;;;;4955673;28;20230;-69
2023/01/14 06:58:13;;;;;;;1999.90;999.90;;;;;;;;;;4956364;29;20287;-69
2023/01/14 07:00:58;;;;;;;1999.90;999.90;;;;;;;;;;4956212;29;20210;-69
2023/01/14 07:03:43;;;;;;;1999.90;999.90;;;;;;;;;;4955846;28;20243;-69
2023/01/14 07:06:28;;;;;;;1999.90;999.90;;;;;;;;;;4955840;29;20211;-69
2023/01/14 07:09:13;;;;;;;1999.90;999.90;;;;;;;;;;4955998;29;20373;-69
2023/01/14 07:11:59;;;;;;;1999.90;999.90;;;;;;;;;;4955815;29;20787;-68
2023/01/14 07:14:45;;;;;;;1999.90;999.90;;;;;;;;;;4955205;28;20306;-68
2023/01/14 07:17:30;;;;;;;1999.90;999.90;;;;;;;;;;4955485;29;20797;-65
2023/01/14 07:20:16;;;;;;;1999.90;999.90;;;;;;;;;;4955829;29;20210;-69
2023/01/14 07:23:01;;;;;;;1999.90;999.90;;;;;;;;;;4954395;29;20215;-69
2023/01/14 07:25:46;;;;;;;1999.90;999.90;;;;;;;;;;4954071;28;20346;-69
2023/01/14 07:28:31;;;;;;;1999.90;999.90;;;;;;;;;;4954369;29;20673;-66
2023/01/14 07:31:17;;;;;;;1999.90;999.90;;;;;;;;;;4954133;29;20219;-69
2023/01/14 07:34:02;;;;;;;1999.90;999.90;;;;;;;;;;4954776;28;20231;-70
2023/01/14 07:36:47;;;;;;;1999.90;999.90;;;;;;;;;;4955450;29;20215;-68
2023/01/14 07:39:32;;;;;;;1999.90;999.90;;;;;;;;;;4954653;29;20302;-69
2023/01/14 07:42:17;;;;;;;1999.90;999.90;;;;;;;;;;4955388;29;20262;-69
2023/01/14 07:45:03;;;;;;;1999.90;999.90;;;;;;;;;;4954340;28;20868;-69
2023/01/14 07:47:50;;;;;;;1999.90;999.90;;;;;;;;;;4954353;29;20406;-68
2023/01/14 07:50:35;;;;;;;1999.90;999.90;;;;;;;;;;4954056;29;21616;-66
2023/01/14 07:53:20;;;;;;;1999.90;999.90;;;;;;;;;;4954869;29;20230;-69
2023/01/14 07:56:06;;;;;;;1999.90;999.90;;;;;;;;;;4953810;29;20226;-70
2023/01/14 07:58:51;;;;;;;1999.90;999.90;;;;;;;;;;4954014;29;20216;-70
2023/01/14 08:01:36;;;;;;;1999.90;999.90;;;;;;;;;;4955143;29;20217;-70
2023/01/14 08:04:22;;;;;;;1999.90;999.90;;;;;;;;;;4954649;28;20234;-70
2023/01/14 08:07:07;;;;;;;1999.90;999.90;;;;;;;;;;4954984;29;20580;-70
2023/01/14 08:09:52;;;;;;;1999.90;999.90;;;;;;;;;;4952489;28;20229;-69
2023/01/14 08:12:37;;;;;;;1999.90;999.90;;;;;;;;;;4954751;29;20220;-69
2023/01/14 08:15:23;;;;;;;1999.90;999.90;;;;;;;;;;4953610;28;20225;-70
2023/01/14 08:18:08;;;;;;;1999.90;999.90;;;;;;;;;;4954525;29;20225;-70
2023/01/14 08:20:57;;;;;;;1999.90;999.90;;;;;;;;;;4954133;29;20212;-70
2023/01/14 08:23:42;;;;;;;1999.90;999.90;;;;;;;;;;4954529;28;20598;-70
2023/01/14 08:26:27;;;;;;;1999.90;999.90;;;;;;;;;;4953785;29;20799;-69
2023/01/14 08:29:14;;;;;;;1999.90;999.90;;;;;;;;;;4953731;29;20225;-68
2023/01/14 08:31:59;;;;;;;1999.90;999.90;;;;;;;;;;4954229;29;20206;-69
2023/01/14 08:34:44;;;;;;;1999.90;999.90;;;;;;;;;;4953574;28;20366;-69
2023/01/14 08:37:30;;;;;;;1999.90;999.90;;;;;;;;;;4954311;29;20263;-69
2023/01/14 08:40:17;;;;;;;1999.90;999.90;;;;;;;;;;4953959;29;20690;-71
2023/01/14 08:43:03;;;;;;;1999.90;999.90;;;;;;;;;;4953881;29;20218;-69
2023/01/14 08:45:47;;;;;;;1999.90;999.90;;;;;;;;;;4953892;29;20204;-69
2023/01/14 08:48:32;;;;;;;1999.90;999.90;;;;;;;;;;4954170;29;20587;-69
2023/01/14 08:51:20;;;;;;;1999.90;999.90;;;;;;;;;;4954266;28;20253;-69
2023/01/14 08:54:06;;;;;;;1999.90;999.90;;;;;;;;;;4953448;28;20253;-69
2023/01/14 08:56:51;;;;;;;1999.90;999.90;;;;;;;;;;4935014;29;20209;-69
2023/01/14 08:59:36;;;;;;;1999.90;999.90;;;;;;;;;;4952197;29;20703;-69
2023/01/14 09:02:21;;;;;;;1999.90;999.90;;;;;;;;;;4946802;29;20302;-69
2023/01/14 09:05:06;;;;;;;1999.90;999.90;;;;;;;;;;4953442;28;20351;-68
2023/01/14 09:17:10;;;;;;;1999.90;999.90;;;;;;;;;;4953840;29;20256;-69
2023/01/14 09:19:55;;;;;;;1999.90;999.90;;;;;;;;;;4951960;29;20978;-69
2023/01/14 09:22:41;;;;;;;1999.90;999.90;;;;;;;;;;4952896;29;20766;-70
2023/01/14 09:25:26;;;;;;;1999.90;999.90;;;;;;;;;;4953443;28;20303;-71
2023/01/14 09:28:12;;;;;;;1999.90;999.90;;;;;;;;;;4950815;29;20218;-70
2023/01/14 09:30:57;;;;;;;1999.90;999.90;;;;;;;;;;4953562;29;20258;-70
2023/01/14 09:33:42;;;;;;;1999.90;999.90;;;;;;;;;;4953162;28;20235;-69
2023/01/14 09:36:28;;;;;;;1999.90;999.90;;;;;;;;;;4953147;29;20287;-69
2023/01/14 09:39:13;;;;;;;1999.90;999.90;;;;;;;;;;4953632;29;20207;-69
2023/01/14 09:41:59;;;;;;;1999.90;999.90;;;;;;;;;;4953205;29;20215;-68
2023/01/14 09:44:45;;;;;;;1999.90;999.90;;;;;;;;;;4952761;28;20232;-70
2023/01/14 09:47:30;;;;;;;1999.90;999.90;;;;;;;;;;4953301;29;20319;-69
2023/01/14 09:50:16;;;;;;;1999.90;999.90;;;;;;;;;;4934248;29;20719;-69
2023/01/14 09:53:06;;;;;;;1999.90;999.90;;;;;;;;;;4934406;29;20740;-70
2023/01/14 09:55:53;;;;;;;1999.90;999.90;;;;;;;;;;4933810;29;20288;-69
2023/01/14 09:58:40;;;;;;;1999.90;999.90;;;;;;;;;;4949664;29;20215;-70
2023/01/14 10:01:30;;;;;;;1999.90;999.90;;;;;;;;;;4953209;29;20208;-70
2023/01/14 10:04:24;;;;;;;1999.90;999.90;;;;;;;;;;4952502;28;20738;-68
2023/01/14 10:07:11;;;;;;;1999.90;999.90;;;;;;;;;;4952941;29;20253;-68
2023/01/14 10:09:57;;;;;;;1999.90;999.90;;;;;;;;;;4953424;29;20204;-69
2023/01/14 10:12:45;;;;;;;1999.90;999.90;;;;;;;;;;4950804;28;20238;-68
2023/01/14 10:15:35;;;;;;;1999.90;999.90;;;;;;;;;;4950362;28;20231;-68
2023/01/14 10:18:24;;;;;;;1999.90;999.90;;;;;;;;;;4952093;29;20662;-68
2023/01/14 10:21:13;;;;;;;1999.90;999.90;;;;;;;;;;4953540;28;20348;-67
2023/01/14 10:23:58;;;;;;;1999.90;999.90;;;;;;;;;;4955286;28;20794;-68
2023/01/14 10:26:44;;;;;;;1999.90;999.90;;;;;;;;;;4955651;29;20207;-68
2023/01/14 10:29:30;;;;;;;1999.90;999.90;;;;;;;;;;4955129;29;20413;-68
2023/01/14 10:32:16;;;;;;;1999.90;999.90;;;;;;;;;;4955497;29;20219;-68
2023/01/14 10:35:04;;;;;;;1999.90;999.90;;;;;;;;;;4954734;28;20375;-68
2023/01/14 10:37:49;;;;;;;1999.90;999.90;;;;;;;;;;4956013;29;20576;-67
2023/01/14 10:40:34;;;;;;;1999.90;999.90;;;;;;;;;;4955666;29;20270;-68
2023/01/14 10:43:27;;;;;;;1999.90;999.90;;;;;;;;;;4952546;29;20257;-67
2023/01/14 10:46:14;;;;;;;1999.90;999.90;;;;;;;;;;4951223;29;20644;-68
2023/01/14 10:49:01;;;;;;;1999.90;999.90;;;;;;;;;;4955011;29;20336;-68
2023/01/14 10:51:49;;;;;;;1999.90;999.90;;;;;;;;;;4955331;29;20702;-68
2023/01/14 10:54:35;;;;;;;1999.90;999.90;;;;;;;;;;4953987;28;20323;-68
2023/01/14 10:57:20;;;;;;;1999.90;999.90;;;;;;;;;;4954194;29;20967;-67
2023/01/14 11:00:06;;;;;;;1999.90;999.90;;;;;;;;;;4954868;29;20215;-68
2023/01/14 11:02:51;;;;;;;1999.90;999.90;;;;;;;;;;4955007;29;20259;-68
2023/01/14 11:05:37;;;;;;;1999.90;999.90;;;;;;;;;;4954328;28;20236;-68
2023/01/14 11:08:26;;;;;;;1999.90;999.90;;;;;;;;;;4954474;29;20216;-68
2023/01/14 11:11:14;;;;;;;1999.90;999.90;;;;;;;;;;4954868;29;20299;-69
2023/01/14 11:14:17;;;;;;;1999.90;999.90;;;;;;;;;;4950960;28;21055;-69
2023/01/14 11:17:20;;;;;;;1999.90;999.90;;;;;;;;;;4951409;29;20222;-68
2023/01/14 11:20:20;;;;;;;1999.90;999.90;;;;;;;;;;4955071;29;20219;-69
2023/01/14 11:23:21;;;;;;;1999.90;999.90;;;;;;;;;;4954428;29;20208;-68
2023/01/14 11:26:09;;;;;;;1999.90;999.90;;;;;;;;;;4945177;29;20702;-69
2023/01/14 11:28:59;;;;;;;1999.90;999.90;;;;;;;;;;4955489;29;20213;-69
2023/01/14 11:31:45;;;;;;;1999.90;999.90;;;;;;;;;;4954170;28;20211;-69
2023/01/14 11:34:32;;;;;;;1999.90;999.90;;;;;;;;;;4954837;28;20321;-69
2023/01/14 11:37:19;;;;;;;1999.90;999.90;;;;;;;;;;4936323;29;20211;-68
2023/01/14 11:40:05;;;;;;;1999.90;999.90;;;;;;;;;;4953453;29;21076;-69
2023/01/14 11:42:52;;;;;;;1999.90;999.90;;;;;;;;;;4954214;29;20352;-68
2023/01/14 11:45:37;;;;;;;1999.90;999.90;;;;;;;;;;4954077;28;20727;-69
2023/01/14 11:48:26;;;;;;;1999.90;999.90;;;;;;;;;;4954435;29;20208;-68
2023/01/14 11:51:17;;;;;;;1999.90;999.90;;;;;;;;;;4953875;29;20264;-69
2023/01/14 11:54:03;;;;;;;1999.90;999.90;;;;;;;;;;4953017;28;20236;-69
2023/01/14 11:56:49;;;;;;;1999.90;999.90;;;;;;;;;;4949940;29;20242;-67
2023/01/14 11:59:38;;;;;;;1999.90;999.90;;;;;;;;;;4954139;29;20259;-70
2023/01/14 12:02:25;;;;;;;1999.90;999.90;;;;;;;;;;4955660;29;20474;-69
2023/01/14 12:05:12;;;;;;;1999.90;999.90;;;;;;;;;;4953464;28;20236;-68
2023/01/14 12:07:58;;;;;;;1999.90;999.90;;;;;;;;;;4946018;29;20213;-68
2023/01/14 12:10:44;;;;;;;1999.90;999.90;;;;;;;;;;4954162;29;20216;-70
2023/01/14 12:16:50;;;;;;;1999.90;999.90;;;;;;;;;;4945102;29;20271;-70
2023/01/14 12:19:37;;;;;;;1999.90;999.90;;;;;;;;;;4954264;29;20284;-70
2023/01/14 12:22:24;;;;;;;1999.90;999.90;;;;;;;;;;4954667;29;20208;-68
2023/01/14 12:25:12;;;;;;;1999.90;999.90;;;;;;;;;;4953400;28;20714;-69
2023/01/14 12:28:00;;;;;;;1999.90;999.90;;;;;;;;;;4936267;29;20213;-68
2023/01/14 12:30:51;;;;;;;1999.90;999.90;;;;;;;;;;4934033;29;20414;-69
2023/01/14 12:33:40;;;;;;;1999.90;999.90;;;;;;;;;;4935320;29;20217;-69
2023/01/14 12:36:27;;;;;;;1999.90;999.90;;;;;;;;;;4934829;29;20225;-68
2023/01/14 12:45:44;;;;;;;1999.90;999.90;;;;;;;;;;4934887;29;20697;-68
2023/01/14 12:48:30;;;;;;;1999.90;999.90;;;;;;;;;;4935116;29;20610;-68
2023/01/14 12:51:18;;;;;;;1999.90;999.90;;;;;;;;;;4935243;29;20204;-68
2023/01/14 12:54:05;;;;;;;1999.90;999.90;;;;;;;;;;4934562;29;20772;-68
2023/01/14 12:56:52;;;;;;;1999.90;999.90;;;;;;;;;;4934716;29;20745;-68
2023/01/14 12:59:38;;;;;;;1999.90;999.90;;;;;;;;;;4934999;29;20216;-68
2023/01/14 13:02:28;;;;;;;1999.90;999.90;;;;;;;;;;4935013;29;20414;-68
2023/01/14 13:05:16;;;;;;;1999.90;999.90;;;;;;;;;;4934489;29;20276;-68
2023/01/14 13:08:04;;;;;;;1999.90;999.90;;;;;;;;;;4934848;29;20212;-68
2023/01/14 13:10:57;;;;;;;1999.90;999.90;;;;;;;;;;4935139;29;20216;-68
2023/01/14 13:13:43;;;;;;;1999.90;999.90;;;;;;;;;;4934948;29;20205;-68
2023/01/14 13:16:33;;;;;;;1999.90;999.90;;;;;;;;;;4934450;29;20237;-68
2023/01/14 13:19:33;;;;;;;1999.90;999.90;;;;;;;;;;4934761;29;20209;-68
2023/01/14 13:22:37;;;;;;;1999.90;999.90;;;;;;;;;;4934770;29;20571;-68
2023/01/14 13:25:43;;;;;;;1999.90;999.90;;;;;;;;;;4934380;29;20236;-69
2023/01/14 13:28:34;;;;;;;1999.90;999.90;;;;;;;;;;4934922;29;20280;-68
2023/01/14 13:31:24;;;;;;;1999.90;999.90;;;;;;;;;;4934807;29;20688;-67
2023/01/14 13:34:28;;;;;;;1999.90;999.90;;;;;;;;;;4934478;29;20704;-68
2023/01/14 13:37:18;;;;;;;1999.90;999.90;;;;;;;;;;4934244;29;20236;-66
2023/01/14 13:40:05;;;;;;;1999.90;999.90;;;;;;;;;;4933693;29;20419;-69
2023/01/14 13:42:57;;;;;;;1999.90;999.90;;;;;;;;;;4934508;29;20208;-68
2023/01/14 13:45:50;;;;;;;1999.90;999.90;;;;;;;;;;4934127;29;20225;-68
2023/01/14 13:48:36;;;;;;;1999.90;999.90;;;;;;;;;;4934435;29;20222;-68
2023/01/14 13:51:27;;;;;;;1999.90;999.90;;;;;;;;;;4934780;29;20214;-68
2023/01/14 13:54:19;;;;;;;1999.90;999.90;;;;;;;;;;4934031;29;20244;-67
2023/01/14 13:57:10;;;;;;;1999.90;999.90;;;;;;;;;;4937664;29;20217;-68
2023/01/14 13:59:56;;;;;;;1999.90;999.90;;;;;;;;;;4937847;29;20205;-68
2023/01/14 14:02:44;;;;;;;1999.90;999.90;;;;;;;;;;4937755;29;20202;-68
2023/01/14 14:05:30;;;;;;;1999.90;999.90;;;;;;;;;;4937445;29;20821;-68
2023/01/14 14:08:25;;;;;;;1999.90;999.90;;;;;;;;;;4938017;29;20208;-68
2023/01/14 14:11:12;;;;;;;1999.90;999.90;;;;;;;;;;4937612;29;20215;-67
2023/01/14 14:14:07;;;;;;;1999.90;999.90;;;;;;;;;;4937599;29;20829;-67
2023/01/14 14:16:53;;;;;;;1999.90;999.90;;;;;;;;;;4937584;29;20229;-68
2023/01/14 14:19:43;;;;;;;1999.90;999.90;;;;;;;;;;4937824;29;20217;-68
2023/01/14 14:22:35;;;;;;;1999.90;999.90;;;;;;;;;;4937360;29;20209;-67
2023/01/14 14:25:22;;;;;;;1999.90;999.90;;;;;;;;;;4937248;29;20217;-68
2023/01/14 14:28:07;;;;;;;1999.90;999.90;;;;;;;;;;4937713;29;20265;-67
2023/01/14 14:30:56;;;;;;;1999.90;999.90;;;;;;;;;;4937435;29;20217;-68
2023/01/14 14:33:42;;;;;;;1999.90;999.90;;;;;;;;;;4937404;29;20228;-67
2023/01/14 14:36:30;;;;;;;1999.90;999.90;;;;;;;;;;4937098;29;20224;-67
2023/01/14 14:39:20;;;;;;;1999.90;999.90;;;;;;;;;;4937360;29;20234;-68
2023/01/14 14:42:11;;;;;;;1999.90;999.90;;;;;;;;;;4937490;29;20206;-67
2023/01/14 14:44:58;;;;;;;1999.90;999.90;;;;;;;;;;4936744;29;20334;-67
2023/01/14 14:47:43;;;;;;;1999.90;999.90;;;;;;;;;;4937199;29;20205;-68
2023/01/14 14:50:30;;;;;;;1999.90;999.90;;;;;;;;;;4937206;29;20579;-67
2023/01/14 14:53:26;;;;;;;1999.90;999.90;;;;;;;;;;4937173;29;20209;-67
2023/01/14 14:56:15;;;;;;;1999.90;999.90;;;;;;;;;;4937092;29;20226;-68
2023/01/14 14:59:00;;;;;;;1999.90;999.90;;;;;;;;;;4937181;29;20579;-67
2023/01/14 15:01:44;;;;;;;1999.90;999.90;;;;;;;;;;4937014;29;20212;-67
2023/01/14 15:04:31;;;;;;;1999.90;999.90;;;;;;;;;;4936627;29;20229;-67
2023/01/14 15:07:16;;;;;;;1999.90;999.90;;;;;;;;;;4935795;29;20209;-68
2023/01/14 15:10:03;;;;;;;1999.90;999.90;;;;;;;;;;4936824;29;20204;-67
2023/01/14 15:12:48;;;;;;;1999.90;999.90;;;;;;;;;;4936813;29;20210;-67
2023/01/14 15:15:33;;;;;;;1999.90;999.90;;;;;;;;;;4936415;29;20236;-68
2023/01/14 15:18:28;;;;;;;1999.90;999.90;;;;;;;;;;4936458;29;20327;-68
2023/01/14 15:21:18;;;;;;;1999.90;999.90;;;;;;;;;;4936681;29;20273;-68
2023/01/14 15:24:05;;;;;;;1999.90;999.90;;;;;;;;;;4936638;29;20281;-67
2023/01/14 15:26:55;;;;;;;1999.90;999.90;;;;;;;;;;4936473;29;20609;-67
2023/01/14 15:29:55;;;;;;;1999.90;999.90;;;;;;;;;;4936466;29;20289;-67
2023/01/14 15:32:41;;;;;;;1999.90;999.90;;;;;;;;;;4936534;29;20214;-68
2023/01/14 15:35:27;;;;;;;1999.90;999.90;;;;;;;;;;4935983;29;20232;-67
2023/01/14 15:38:14;;;;;;;1999.90;999.90;;;;;;;;;;4936294;29;20372;-68
2023/01/14 15:41:06;;;;;;;1999.90;999.90;;;;;;;;;;4936345;29;20575;-68
2023/01/14 15:43:53;;;;;;;1999.90;999.90;;;;;;;;;;4936173;29;20228;-68
2023/01/14 15:46:41;;;;;;;1999.90;999.90;;;;;;;;;;4935269;29;20398;-67
2023/01/14 15:49:27;;;;;;;1999.90;999.90;;;;;;;;;;4936186;29;20270;-67
2023/01/14 15:52:29;;;;;;;1999.90;999.90;;;;;;;;;;4936396;29;20345;-68
2023/01/14 15:55:20;;;;;;;1999.90;999.90;;;;;;;;;;4935507;29;20743;-68
2023/01/14 15:58:24;;;;;;;1999.90;999.90;;;;;;;;;;4935740;29;20585;-68
2023/01/14 16:01:18;;;;;;;1999.90;999.90;;;;;;;;;;4936094;29;20209;-68
2023/01/14 16:04:03;;;;;;;1999.90;999.90;;;;;;;;;;4935688;29;20225;-68
2023/01/14 16:06:50;;;;;;;1999.90;999.90;;;;;;;;;;4935829;29;20182;-68
2023/01/14 16:09:35;;;;;;;1999.90;999.90;;;;;;;;;;4935895;29;20205;-68
2023/01/14 16:12:20;;;;;;;1999.90;999.90;;;;;;;;;;4935914;29;20217;-68